createdAt,value
2022-10-15T00:01:31.246Z,71.70
2022-10-15T00:06:30.237Z,65.43
2022-10-15T00:08:58.343Z,71.60
2022-10-15T00:11:28.083Z,66.07
2022-10-15T00:13:58.032Z,70.50
2022-10-15T00:16:29.797Z,65.60
2022-10-15T00:18:59.421Z,66.57
2022-10-15T00:21:28.136Z,68.37
2022-10-15T00:23:57.188Z,74.00
2022-10-15T00:26:27.375Z,61.97
2022-10-15T00:28:58.547Z,64.23
2022-10-15T00:31:30.298Z,68.57
2022-10-15T00:34:00.203Z,71.87
2022-10-15T00:36:30.680Z,73.03
2022-10-15T00:38:59.208Z,67.27
2022-10-15T00:41:29.585Z,71.93
2022-10-15T00:43:59.517Z,72.77
2022-10-15T00:46:33.241Z,65.10
2022-10-15T00:49:09.553Z,73.13
2022-10-15T00:51:43.868Z,65.93
2022-10-15T00:54:13.005Z,71.93
2022-10-15T00:56:42.523Z,72.70
2022-10-15T00:59:12.056Z,72.90
2022-10-15T01:01:41.856Z,69.80
2022-10-15T01:04:10.269Z,70.90
2022-10-15T01:06:39.258Z,73.03
2022-10-15T01:09:08.004Z,72.53
2022-10-15T01:11:41.522Z,75.30
2022-10-15T01:14:28.129Z,69.03
2022-10-15T01:17:05.938Z,63.47
2022-10-15T01:19:58.924Z,69.03
2022-10-15T01:22:42.921Z,67.73
2022-10-15T01:25:22.914Z,69.57
2022-10-15T01:27:56.003Z,73.07
2022-10-15T01:30:27.763Z,70.00
2022-10-15T01:33:17.031Z,75.97
2022-10-15T01:35:49.716Z,71.53
2022-10-15T01:38:31.503Z,73.93
2022-10-15T01:41:05.029Z,71.77
2022-10-15T01:43:39.497Z,67.17
2022-10-15T01:46:40.760Z,74.97
2022-10-15T01:49:15.556Z,71.03
2022-10-15T01:51:45.952Z,77.30
2022-10-15T01:54:18.854Z,76.53
2022-10-15T01:56:50.697Z,78.63
2022-10-15T01:59:24.630Z,79.13
2022-10-15T02:01:57.900Z,73.00
2022-10-15T02:04:28.310Z,75.33
2022-10-15T02:07:02.374Z,76.17
2022-10-15T02:09:39.964Z,75.83
2022-10-15T02:12:19.555Z,72.40
2022-10-15T02:14:56.505Z,69.93
2022-10-15T02:17:33.317Z,80.63
2022-10-15T02:20:07.255Z,87.53
2022-10-15T02:22:40.838Z,88.00
2022-10-15T02:25:15.113Z,84.07
2022-10-15T02:27:45.457Z,90.27
2022-10-15T02:30:14.547Z,89.60
2022-10-15T02:32:47.961Z,88.97
2022-10-15T02:35:16.482Z,91.23
2022-10-15T02:37:49.650Z,91.40
2022-10-15T02:40:22.990Z,87.97
2022-10-15T02:42:51.789Z,89.70
2022-10-15T02:45:20.068Z,90.43
2022-10-15T02:47:49.519Z,90.67
2022-10-15T02:50:20.428Z,88.17
2022-10-15T02:52:48.494Z,87.13
2022-10-15T02:55:16.706Z,94.30
2022-10-15T02:57:45.035Z,94.40
2022-10-15T03:00:14.300Z,76.57
2022-10-15T03:02:42.401Z,88.73
2022-10-15T03:05:12.306Z,86.40
2022-10-15T03:07:40.381Z,84.83
2022-10-15T03:10:09.668Z,77.90
2022-10-15T03:12:37.938Z,84.07
2022-10-15T03:15:08.538Z,84.43
2022-10-15T03:17:37.334Z,86.40
2022-10-15T03:20:06.388Z,85.60
2022-10-15T03:22:39.410Z,88.53
2022-10-15T03:25:08.053Z,92.07
2022-10-15T03:27:36.204Z,87.97
2022-10-15T03:30:09.044Z,94.97
2022-10-15T03:32:37.135Z,100.83
2022-10-15T03:35:08.097Z,99.00
2022-10-15T03:37:36.752Z,111.13
2022-10-15T03:40:13.607Z,103.27
2022-10-15T03:42:43.798Z,99.97
2022-10-15T03:45:12.936Z,96.60
2022-10-15T03:47:41.184Z,114.57
2022-10-15T03:50:09.935Z,100.17
2022-10-15T03:52:38.343Z,111.40
2022-10-15T03:55:09.496Z,114.97
2022-10-15T03:57:38.401Z,114.93
2022-10-15T04:00:09.587Z,114.53
2022-10-15T04:02:43.311Z,111.73
2022-10-15T04:05:23.690Z,108.23
2022-10-15T04:07:58.146Z,114.27
2022-10-15T04:10:29.595Z,113.77
2022-10-15T04:12:57.661Z,116.67
2022-10-15T04:15:27.303Z,108.10
2022-10-15T04:18:00.279Z,114.10
2022-10-15T04:20:30.632Z,125.30
2022-10-15T04:23:11.137Z,133.50
2022-10-15T04:25:43.132Z,127.40
2022-10-15T04:28:11.744Z,125.60
2022-10-15T04:30:40.829Z,130.23
2022-10-15T04:33:13.339Z,132.03
2022-10-15T04:35:41.403Z,122.23
2022-10-15T04:38:17.184Z,123.33
2022-10-15T04:41:05.429Z,116.97
2022-10-15T04:44:11.770Z,113.43
2022-10-15T04:46:40.919Z,123.97
2022-10-15T04:49:27.237Z,117.13
2022-10-15T04:51:55.575Z,114.10
2022-10-15T04:54:29.656Z,109.07
2022-10-15T04:57:01.686Z,113.20
2022-10-15T04:59:29.808Z,111.63
2022-10-15T05:02:20.533Z,118.57
2022-10-15T05:04:54.899Z,107.60
2022-10-15T05:07:23.992Z,110.60
2022-10-15T05:09:54.338Z,107.57
2022-10-15T05:12:23.912Z,135.87
2022-10-15T05:14:52.716Z,146.63
2022-10-15T05:17:26.964Z,150.77
2022-10-15T05:19:56.343Z,124.47
2022-10-15T05:22:28.076Z,122.40
2022-10-15T05:25:00.188Z,104.90
2022-10-15T05:27:34.493Z,104.43
2022-10-15T05:30:05.717Z,102.10
2022-10-15T05:32:39.280Z,100.40
2022-10-15T05:35:11.643Z,102.90
2022-10-15T05:38:08.842Z,101.27
2022-10-15T05:40:37.012Z,98.53
2022-10-15T05:43:09.425Z,96.90
2022-10-15T05:45:37.517Z,99.33
2022-10-15T05:48:07.880Z,100.50
2022-10-15T05:50:36.946Z,102.80
2022-10-15T05:53:09.353Z,107.87
2022-10-15T05:55:37.418Z,102.43
2022-10-15T05:58:06.223Z,108.03
2022-10-15T06:00:36.539Z,109.43
2022-10-15T06:03:04.719Z,123.10
2022-10-15T06:05:33.724Z,104.47
2022-10-15T06:08:01.778Z,110.23
2022-10-15T06:10:29.855Z,114.67
2022-10-15T06:12:58.323Z,110.63
2022-10-15T06:15:26.439Z,115.40
2022-10-15T06:17:56.260Z,112.73
2022-10-15T06:20:24.471Z,100.87
2022-10-15T06:22:52.549Z,107.70
2022-10-15T06:25:20.596Z,102.70
2022-10-15T06:27:48.655Z,95.77
2022-10-15T06:30:16.811Z,87.87
2022-10-15T06:32:49.068Z,91.50
2022-10-15T06:35:20.117Z,81.03
2022-10-15T06:37:48.582Z,83.07
2022-10-15T06:40:16.958Z,70.93
2022-10-15T06:42:45.314Z,69.40
2022-10-15T06:45:15.842Z,61.87
2022-10-15T06:47:46.462Z,62.07
2022-10-15T06:50:14.627Z,58.30
2022-10-15T06:52:44.416Z,66.20
2022-10-15T06:55:12.442Z,62.00
2022-10-15T06:57:40.490Z,63.97
2022-10-15T07:00:09.488Z,57.53
2022-10-15T07:02:37.553Z,56.90
2022-10-15T07:05:06.326Z,58.60
2022-10-15T07:07:34.420Z,52.03
2022-10-15T07:10:04.477Z,58.67
2022-10-15T07:12:32.899Z,57.07
2022-10-15T07:15:00.947Z,50.33
2022-10-15T07:17:30.812Z,53.47
2022-10-15T07:19:58.895Z,54.03
2022-10-15T07:22:27.109Z,52.60
2022-10-15T07:24:55.265Z,48.00
2022-10-15T07:27:24.732Z,52.97
2022-10-15T07:29:53.372Z,49.47
2022-10-15T07:32:21.565Z,45.63
2022-10-15T07:34:49.863Z,45.37
2022-10-15T07:37:18.069Z,48.57
2022-10-15T07:39:46.184Z,46.27
2022-10-15T07:42:14.287Z,47.00
2022-10-15T07:44:43.790Z,42.70
2022-10-15T07:47:11.853Z,42.63
2022-10-15T07:49:39.989Z,40.70
2022-10-15T07:52:08.777Z,40.47
2022-10-15T07:54:37.556Z,46.07
2022-10-15T07:57:07.045Z,40.83
2022-10-15T07:59:35.396Z,40.43
2022-10-15T08:02:04.982Z,39.20
2022-10-15T08:04:34.987Z,42.37
2022-10-15T08:07:04.872Z,39.27
2022-10-15T08:09:36.620Z,37.87
2022-10-15T08:12:06.937Z,38.80
2022-10-15T08:14:35.660Z,36.57
2022-10-15T08:17:05.912Z,35.73
2022-10-15T08:19:34.504Z,39.30
2022-10-15T08:22:02.971Z,38.63
2022-10-15T08:24:31.161Z,39.83
2022-10-15T08:26:59.670Z,36.27
2022-10-15T08:29:27.805Z,34.67
2022-10-15T08:31:55.856Z,35.70
2022-10-15T08:34:26.620Z,35.67
2022-10-15T08:36:54.720Z,34.43
2022-10-15T08:39:22.854Z,34.17
2022-10-15T08:41:54.180Z,37.90
2022-10-15T08:44:26.120Z,38.13
2022-10-15T08:47:02.384Z,38.37
2022-10-15T08:49:43.376Z,36.90
2022-10-15T08:52:22.211Z,36.10
2022-10-15T08:54:50.405Z,34.50
2022-10-15T08:57:25.440Z,34.10
2022-10-15T09:00:02.735Z,36.40
2022-10-15T09:02:36.769Z,33.63
2022-10-15T09:05:23.936Z,33.83
2022-10-15T09:07:58.514Z,32.50
2022-10-15T09:10:37.256Z,36.53
2022-10-15T09:13:13.925Z,32.97
2022-10-15T09:15:50.287Z,33.47
2022-10-15T09:18:23.508Z,32.70
2022-10-15T09:20:53.640Z,33.73
2022-10-15T09:23:23.899Z,35.67
2022-10-15T09:26:00.303Z,32.00
2022-10-15T09:28:37.082Z,32.47
2022-10-15T09:31:06.783Z,34.20
2022-10-15T09:33:40.853Z,33.90
2022-10-15T09:36:27.304Z,34.37
2022-10-15T09:39:04.470Z,32.90
2022-10-15T09:41:46.843Z,32.97
2022-10-15T09:44:19.671Z,35.20
2022-10-15T09:46:51.783Z,34.30
2022-10-15T09:49:24.015Z,34.80
2022-10-15T09:52:03.932Z,32.63
2022-10-15T09:54:43.896Z,35.57
2022-10-15T09:57:15.332Z,36.60
2022-10-15T09:59:54.581Z,32.13
2022-10-15T10:02:24.583Z,29.67
2022-10-15T10:04:53.426Z,34.93
2022-10-15T10:07:34.949Z,30.00
2022-10-15T10:10:06.611Z,29.23
2022-10-15T10:12:36.969Z,33.70
2022-10-15T10:15:09.839Z,35.10
2022-10-15T10:17:38.123Z,29.83
2022-10-15T10:20:17.001Z,33.60
2022-10-15T10:22:51.166Z,29.17
2022-10-15T10:25:35.933Z,32.50
2022-10-15T10:28:17.745Z,29.50
2022-10-15T10:30:53.512Z,30.50
2022-10-15T10:33:27.508Z,31.07
2022-10-15T10:35:56.995Z,31.13
2022-10-15T10:38:30.499Z,30.43
2022-10-15T10:41:05.347Z,28.73
2022-10-15T10:43:39.055Z,27.73
2022-10-15T10:46:19.255Z,24.80
2022-10-15T10:48:49.813Z,26.50
2022-10-15T10:51:19.964Z,25.70
2022-10-15T10:53:57.629Z,24.60
2022-10-15T10:56:29.935Z,31.37
2022-10-15T10:59:02.657Z,26.67
2022-10-15T11:01:31.060Z,24.87
2022-10-15T11:03:59.186Z,27.03
2022-10-15T11:06:55.433Z,29.40
2022-10-15T11:09:50.043Z,22.80
2022-10-15T11:12:45.240Z,23.47
2022-10-15T11:15:24.825Z,28.70
2022-10-15T11:18:03.644Z,26.00
2022-10-15T11:20:57.835Z,23.07
2022-10-15T11:23:44.419Z,21.50
2022-10-15T11:26:37.046Z,25.80
2022-10-15T11:29:15.920Z,23.60
2022-10-15T11:32:02.891Z,22.23
2022-10-15T11:34:53.312Z,22.80
2022-10-15T11:37:35.765Z,21.30
2022-10-15T11:40:24.104Z,23.27
2022-10-15T11:42:58.522Z,19.40
2022-10-15T11:45:48.599Z,21.90
2022-10-15T11:48:26.227Z,25.13
2022-10-15T11:51:01.303Z,22.60
2022-10-15T11:53:53.799Z,26.03
2022-10-15T11:56:26.613Z,22.70
2022-10-15T11:59:01.931Z,23.47
2022-10-15T12:01:37.066Z,20.80
2022-10-15T12:04:13.502Z,21.77
2022-10-15T12:06:46.731Z,26.17
2022-10-15T12:09:20.705Z,21.63
2022-10-15T12:11:52.670Z,22.90
2022-10-15T12:14:28.479Z,21.27
2022-10-15T12:17:04.995Z,23.07
2022-10-15T12:19:41.177Z,21.07
2022-10-15T12:22:11.885Z,20.73
2022-10-15T12:24:54.891Z,22.37
2022-10-15T12:27:26.301Z,21.90
2022-10-15T12:30:21.018Z,22.10
2022-10-15T12:32:51.998Z,26.20
2022-10-15T12:35:24.851Z,28.97
2022-10-15T12:37:53.448Z,26.13
2022-10-15T12:40:30.619Z,22.13
2022-10-15T12:43:01.166Z,23.73
2022-10-15T12:45:39.209Z,22.40
2022-10-15T12:48:29.178Z,22.00
2022-10-15T12:51:39.461Z,24.83
2022-10-15T12:54:36.900Z,25.40
2022-10-15T12:57:20.555Z,22.67
2022-10-15T12:59:58.182Z,24.33
2022-10-15T13:02:38.895Z,21.80
2022-10-15T13:05:08.729Z,21.73
2022-10-15T13:07:41.290Z,24.90
2022-10-15T13:10:21.628Z,20.57
2022-10-15T13:12:55.109Z,25.07
2022-10-15T13:15:26.283Z,24.23
2022-10-15T13:17:56.372Z,23.67
2022-10-15T13:20:34.418Z,23.73
2022-10-15T13:23:28.963Z,25.50
2022-10-15T13:26:18.435Z,21.90
2022-10-15T13:28:47.475Z,21.27
2022-10-15T13:31:26.063Z,25.07
2022-10-15T13:34:01.243Z,23.60
2022-10-15T13:36:32.475Z,21.93
2022-10-15T13:39:03.702Z,26.57
2022-10-15T13:41:35.046Z,22.37
2022-10-15T13:44:03.204Z,21.23
2022-10-15T13:46:33.820Z,25.53
2022-10-15T13:49:05.524Z,27.43
2022-10-15T13:51:36.336Z,23.13
2022-10-15T13:54:10.243Z,36.90
2022-10-15T13:56:38.684Z,31.50
2022-10-15T13:59:07.403Z,24.70
2022-10-15T14:01:36.945Z,24.63
2022-10-15T14:04:18.057Z,27.87
2022-10-15T14:06:57.119Z,29.87
2022-10-15T14:09:30.464Z,29.87
2022-10-15T14:12:02.365Z,35.83
2022-10-15T14:14:35.145Z,33.83
2022-10-15T14:17:05.746Z,28.03
2022-10-15T14:19:37.944Z,29.47
2022-10-15T14:22:06.766Z,29.73
2022-10-15T14:24:36.669Z,39.13
2022-10-15T14:27:07.904Z,32.90
2022-10-15T14:29:40.793Z,27.77
2022-10-15T14:32:24.293Z,27.67
2022-10-15T14:34:54.625Z,28.77
2022-10-15T14:37:31.294Z,29.07
2022-10-15T14:40:14.528Z,28.43
2022-10-15T14:42:44.531Z,28.43
2022-10-15T14:45:14.551Z,26.33
2022-10-15T14:47:45.414Z,29.37
2022-10-15T14:50:15.252Z,28.70
2022-10-15T14:52:46.676Z,30.40
2022-10-15T14:55:21.077Z,30.77
2022-10-15T14:57:49.981Z,34.77
2022-10-15T15:00:25.294Z,29.93
2022-10-15T15:02:55.848Z,33.33
2022-10-15T15:05:27.176Z,28.60
2022-10-15T15:07:56.965Z,28.53
2022-10-15T15:10:26.512Z,25.97
2022-10-15T15:12:56.918Z,26.80
2022-10-15T15:15:27.513Z,26.83
2022-10-15T15:17:56.052Z,27.70
2022-10-15T15:20:25.961Z,31.43
2022-10-15T15:22:56.194Z,31.80
2022-10-15T15:25:29.775Z,32.10
2022-10-15T15:27:58.277Z,30.80
2022-10-15T15:30:28.252Z,33.03
2022-10-15T15:32:56.349Z,30.37
2022-10-15T15:35:40.152Z,28.73
2022-10-15T15:38:08.588Z,31.67
2022-10-15T15:40:37.189Z,30.03
2022-10-15T15:43:05.247Z,27.80
2022-10-15T15:45:33.471Z,26.10
2022-10-15T15:48:03.714Z,29.13
2022-10-15T15:50:33.870Z,28.20
2022-10-15T15:53:06.553Z,29.90
2022-10-15T15:55:34.722Z,31.53
2022-10-15T15:58:02.809Z,24.93
2022-10-15T16:00:31.005Z,24.37
2022-10-15T16:02:59.048Z,27.47
2022-10-15T16:05:27.248Z,26.63
2022-10-15T16:07:56.941Z,25.77
2022-10-15T16:10:25.344Z,25.97
2022-10-15T16:12:53.427Z,26.07
2022-10-15T16:15:21.457Z,29.97
2022-10-15T16:17:49.540Z,33.33
2022-10-15T16:20:17.732Z,42.13
2022-10-15T16:22:45.823Z,37.90
2022-10-15T16:25:15.282Z,33.20
2022-10-15T16:27:45.549Z,35.33
2022-10-15T16:30:13.685Z,39.17
2022-10-15T16:32:41.742Z,46.10
2022-10-15T16:35:10.580Z,44.87
2022-10-15T16:37:38.641Z,46.40
2022-10-15T16:40:07.983Z,42.40
2022-10-15T16:42:37.455Z,41.17
2022-10-15T16:45:06.044Z,41.53
2022-10-15T16:47:34.096Z,44.93
2022-10-15T16:50:02.566Z,41.47
2022-10-15T16:52:30.722Z,46.83
2022-10-15T16:54:58.892Z,42.83
2022-10-15T16:57:27.321Z,40.77
2022-10-15T16:59:56.902Z,43.30
2022-10-15T17:02:25.574Z,39.90
2022-10-15T17:04:54.035Z,38.60
2022-10-15T17:07:22.195Z,45.60
2022-10-15T17:09:50.669Z,43.93
2022-10-15T17:12:18.767Z,50.43
2022-10-15T17:14:50.689Z,45.87
2022-10-15T17:17:20.183Z,43.17
2022-10-15T17:19:48.246Z,43.73
2022-10-15T17:22:16.323Z,41.73
2022-10-15T17:24:44.674Z,37.90
2022-10-15T17:27:12.817Z,42.20
2022-10-15T17:29:40.927Z,40.93
2022-10-15T17:32:08.988Z,50.53
2022-10-15T17:34:38.431Z,40.27
2022-10-15T17:37:08.103Z,40.00
2022-10-15T17:39:36.690Z,39.87
2022-10-15T17:42:05.117Z,41.23
2022-10-15T17:44:33.168Z,42.07
2022-10-15T17:47:01.299Z,41.57
2022-10-15T17:49:29.507Z,44.70
2022-10-15T17:51:59.037Z,39.70
2022-10-15T17:54:27.918Z,36.50
2022-10-15T17:56:56.081Z,39.00
2022-10-15T17:59:24.808Z,35.83
2022-10-15T18:01:58.368Z,39.80
2022-10-15T18:04:28.267Z,45.87
2022-10-15T18:06:56.432Z,38.33
2022-10-15T18:09:29.303Z,37.13
2022-10-15T18:12:01.066Z,35.07
2022-10-15T18:14:30.999Z,40.07
2022-10-15T18:16:59.769Z,36.30
2022-10-15T18:19:28.209Z,36.17
2022-10-15T18:21:56.835Z,39.57
2022-10-15T18:24:25.605Z,41.77
2022-10-15T18:26:55.377Z,37.10
2022-10-15T18:29:25.316Z,41.43
2022-10-15T18:31:57.654Z,36.90
2022-10-15T18:34:28.407Z,41.23
2022-10-15T18:36:56.527Z,39.80
2022-10-15T18:39:25.215Z,37.03
2022-10-15T18:41:54.739Z,39.93
2022-10-15T18:44:23.413Z,41.27
2022-10-15T18:46:52.794Z,41.93
2022-10-15T18:49:21.929Z,38.90
2022-10-15T18:51:52.853Z,42.73
2022-10-15T18:54:22.702Z,38.80
2022-10-15T18:56:52.574Z,39.60
2022-10-15T18:59:22.551Z,38.63
2022-10-15T19:01:53.757Z,37.50
2022-10-15T19:04:23.984Z,35.53
2022-10-15T19:06:53.796Z,33.37
2022-10-15T19:09:24.696Z,36.30
2022-10-15T19:11:54.498Z,36.57
2022-10-15T19:14:25.849Z,36.70
2022-10-15T19:16:54.200Z,32.77
2022-10-15T19:19:23.918Z,39.63
2022-10-15T19:21:55.865Z,36.97
2022-10-15T19:24:25.102Z,36.50
2022-10-15T19:26:53.569Z,35.70
2022-10-15T19:29:23.508Z,35.73
2022-10-15T19:31:53.912Z,35.00
2022-10-15T19:34:23.229Z,37.03
2022-10-15T19:36:51.704Z,35.47
2022-10-15T19:39:22.175Z,33.10
2022-10-15T19:41:50.798Z,36.87
2022-10-15T19:44:24.726Z,33.63
2022-10-15T19:46:55.057Z,39.27
2022-10-15T19:49:23.624Z,36.33
2022-10-15T19:51:55.229Z,35.93
2022-10-15T19:54:26.506Z,32.27
2022-10-15T19:56:54.571Z,33.83
2022-10-15T19:59:22.739Z,36.17
2022-10-15T20:01:50.893Z,36.07
2022-10-15T20:04:21.943Z,42.47
2022-10-15T20:06:52.643Z,41.27
2022-10-15T20:09:25.674Z,36.63
2022-10-15T20:11:53.892Z,35.30
2022-10-15T20:14:23.271Z,43.37
2022-10-15T20:16:51.360Z,35.03
2022-10-15T20:19:23.004Z,36.70
2022-10-15T20:21:51.389Z,36.07
2022-10-15T20:24:19.536Z,37.57
2022-10-15T20:26:47.709Z,42.50
2022-10-15T20:29:17.422Z,42.63
2022-10-15T20:31:45.595Z,39.37
2022-10-15T20:34:13.740Z,39.17
2022-10-15T20:36:43.269Z,35.90
2022-10-15T20:39:11.454Z,34.87
2022-10-15T20:41:39.594Z,34.23
2022-10-15T20:44:07.822Z,33.43
2022-10-15T20:46:41.307Z,33.60
2022-10-15T20:49:14.723Z,36.77
2022-10-15T20:51:45.953Z,37.40
2022-10-15T20:54:15.203Z,34.90
2022-10-15T20:56:43.664Z,35.43
2022-10-15T20:59:12.068Z,35.80
2022-10-15T21:01:40.293Z,38.77
2022-10-15T21:04:08.471Z,34.10
2022-10-15T21:06:36.537Z,32.07
2022-10-15T21:09:06.144Z,33.20
2022-10-15T21:11:34.199Z,35.37
2022-10-15T21:14:02.338Z,33.43
2022-10-15T21:19:03.438Z,32.53
2022-10-15T21:21:32.473Z,29.97
2022-10-15T21:24:00.838Z,31.63
2022-10-15T21:26:30.420Z,34.03
2022-10-15T21:29:00.233Z,34.37
2022-10-15T21:31:28.588Z,30.80
2022-10-15T21:33:57.604Z,28.17
2022-10-15T21:36:27.470Z,32.63
2022-10-15T21:38:57.142Z,32.07
2022-10-15T21:41:26.879Z,33.80
2022-10-15T21:43:56.393Z,32.93
2022-10-15T21:46:24.979Z,37.23
2022-10-15T21:48:53.844Z,30.63
2022-10-15T21:51:24.925Z,34.60
2022-10-15T21:53:53.172Z,30.90
2022-10-15T21:56:22.019Z,29.83
2022-10-15T21:58:50.909Z,29.03
2022-10-15T22:01:22.790Z,29.73
2022-10-15T22:03:52.645Z,32.63
2022-10-15T22:06:21.868Z,36.33
2022-10-15T22:08:50.425Z,29.87
2022-10-15T22:11:21.040Z,29.33
2022-10-15T22:13:51.195Z,29.97
2022-10-15T22:16:21.263Z,30.77
2022-10-15T22:18:49.379Z,32.27
2022-10-15T22:21:19.070Z,29.87
2022-10-15T22:23:48.444Z,31.23
2022-10-15T22:26:18.873Z,27.97
2022-10-15T22:28:47.349Z,29.83
2022-10-15T22:31:17.593Z,29.00
2022-10-15T22:33:47.309Z,33.07
2022-10-15T22:36:16.909Z,30.37
2022-10-15T22:38:47.974Z,30.47
2022-10-15T22:41:16.672Z,30.20
2022-10-15T22:43:45.054Z,31.47
2022-10-15T22:46:13.338Z,28.80
2022-10-15T22:48:42.655Z,25.87
2022-10-15T22:51:14.389Z,25.37
2022-10-15T22:53:42.882Z,24.43
2022-10-15T22:56:14.277Z,26.53
2022-10-15T22:58:42.790Z,24.40
2022-10-15T23:01:12.905Z,26.77
2022-10-15T23:03:41.897Z,31.13
2022-10-15T23:06:11.674Z,27.80
2022-10-15T23:08:40.770Z,26.00
2022-10-15T23:11:10.617Z,30.00
2022-10-15T23:13:39.668Z,27.33
2022-10-15T23:16:09.258Z,31.83
2022-10-15T23:18:37.856Z,28.57
2022-10-15T23:21:07.664Z,25.53
2022-10-15T23:23:37.121Z,28.07
2022-10-15T23:26:05.239Z,30.17
2022-10-15T23:28:33.380Z,25.27
2022-10-15T23:31:01.510Z,27.97
2022-10-15T23:33:29.653Z,26.87
2022-10-15T23:35:59.123Z,27.60
2022-10-15T23:38:28.158Z,24.40
2022-10-15T23:41:06.154Z,26.47
2022-10-15T23:43:34.620Z,28.67
2022-10-15T23:46:02.988Z,25.83
2022-10-15T23:48:31.097Z,26.00
2022-10-15T23:51:02.545Z,24.40
2022-10-15T23:53:33.679Z,22.40
2022-10-15T23:56:04.105Z,23.33
2022-10-15T23:58:33.072Z,24.20
